sensor_id;sensor_type;location;lat;lon;timestamp;P1;durP1;ratioP1;P2;durP2;ratioP2
179;SDS011;78;48.788;9.010;2023-06-04T00:00:47;34.23;;;12.67;;
179;SDS011;78;48.788;9.010;2023-06-04T00:03:13;31.47;;;12.50;;
179;SDS011;78;48.788;9.010;2023-06-04T00:05:39;27.30;;;11.40;;
179;SDS011;78;48.788;9.010;2023-06-04T00:08:05;30.10;;;13.30;;
179;SDS011;78;48.788;9.010;2023-06-04T00:10:31;30.53;;;11.90;;
179;SDS011;78;48.788;9.010;2023-06-04T00:12:58;32.30;;;12.10;;
179;SDS011;78;48.788;9.010;2023-06-04T00:15:25;30.30;;;12.50;;
179;SDS011;78;48.788;9.010;2023-06-04T00:17:51;32.80;;;13.00;;
179;SDS011;78;48.788;9.010;2023-06-04T00:20:17;31.17;;;12.63;;
179;SDS011;78;48.788;9.010;2023-06-04T00:22:43;30.23;;;12.67;;
179;SDS011;78;48.788;9.010;2023-06-04T00:25:10;29.63;;;12.00;;
179;SDS011;78;48.788;9.010;2023-06-04T00:27:36;31.60;;;11.97;;
179;SDS011;78;48.788;9.010;2023-06-04T00:30:03;32.30;;;12.47;;
179;SDS011;78;48.788;9.010;2023-06-04T00:32:29;29.10;;;12.67;;
179;SDS011;78;48.788;9.010;2023-06-04T00:34:56;32.00;;;11.73;;
179;SDS011;78;48.788;9.010;2023-06-04T00:37:23;33.50;;;12.80;;
179;SDS011;78;48.788;9.010;2023-06-04T00:39:49;32.53;;;12.83;;
179;SDS011;78;48.788;9.010;2023-06-04T00:42:16;30.47;;;12.50;;
179;SDS011;78;48.788;9.010;2023-06-04T00:44:42;35.03;;;12.20;;
179;SDS011;78;48.788;9.010;2023-06-04T00:47:14;32.80;;;13.03;;
179;SDS011;78;48.788;9.010;2023-06-04T00:49:40;31.13;;;12.13;;
179;SDS011;78;48.788;9.010;2023-06-04T00:52:07;32.03;;;12.87;;
179;SDS011;78;48.788;9.010;2023-06-04T00:54:34;31.10;;;12.23;;
179;SDS011;78;48.788;9.010;2023-06-04T00:57:01;31.00;;;12.30;;
179;SDS011;78;48.788;9.010;2023-06-04T00:59:28;30.77;;;12.50;;
179;SDS011;78;48.788;9.010;2023-06-04T01:02:00;30.30;;;12.10;;
179;SDS011;78;48.788;9.010;2023-06-04T01:04:36;30.83;;;12.30;;
179;SDS011;78;48.788;9.010;2023-06-04T01:07:04;32.30;;;12.73;;
179;SDS011;78;48.788;9.010;2023-06-04T01:09:30;30.70;;;12.63;;
179;SDS011;78;48.788;9.010;2023-06-04T01:11:57;29.27;;;11.83;;
179;SDS011;78;48.788;9.010;2023-06-04T01:14:24;31.40;;;12.30;;
179;SDS011;78;48.788;9.010;2023-06-04T01:25:04;35.07;;;12.47;;
179;SDS011;78;48.788;9.010;2023-06-04T01:27:31;32.50;;;12.73;;
179;SDS011;78;48.788;9.010;2023-06-04T01:30:00;35.10;;;12.73;;
179;SDS011;78;48.788;9.010;2023-06-04T01:32:28;34.00;;;13.27;;
179;SDS011;78;48.788;9.010;2023-06-04T01:34:55;33.70;;;12.97;;
179;SDS011;78;48.788;9.010;2023-06-04T01:37:22;30.83;;;13.17;;
179;SDS011;78;48.788;9.010;2023-06-04T01:39:48;31.00;;;12.50;;
179;SDS011;78;48.788;9.010;2023-06-04T01:42:15;33.73;;;12.67;;
179;SDS011;78;48.788;9.010;2023-06-04T01:44:41;35.00;;;12.70;;
179;SDS011;78;48.788;9.010;2023-06-04T01:47:08;30.73;;;12.80;;
179;SDS011;78;48.788;9.010;2023-06-04T01:49:34;30.80;;;12.60;;
179;SDS011;78;48.788;9.010;2023-06-04T01:52:03;31.50;;;13.50;;
179;SDS011;78;48.788;9.010;2023-06-04T01:54:29;31.97;;;12.63;;
179;SDS011;78;48.788;9.010;2023-06-04T01:56:58;30.30;;;12.60;;
179;SDS011;78;48.788;9.010;2023-06-04T01:59:24;31.27;;;13.03;;
179;SDS011;78;48.788;9.010;2023-06-04T02:01:52;31.90;;;13.40;;
179;SDS011;78;48.788;9.010;2023-06-04T02:04:18;38.33;;;12.50;;
179;SDS011;78;48.788;9.010;2023-06-04T02:06:46;31.10;;;12.97;;
179;SDS011;78;48.788;9.010;2023-06-04T02:09:13;41.53;;;13.20;;
179;SDS011;78;48.788;9.010;2023-06-04T02:11:39;32.33;;;14.00;;
179;SDS011;78;48.788;9.010;2023-06-04T02:14:06;34.57;;;13.53;;
179;SDS011;78;48.788;9.010;2023-06-04T02:16:32;31.60;;;12.57;;
179;SDS011;78;48.788;9.010;2023-06-04T02:18:58;36.00;;;12.63;;
179;SDS011;78;48.788;9.010;2023-06-04T02:21:25;37.00;;;13.23;;
179;SDS011;78;48.788;9.010;2023-06-04T02:23:52;32.47;;;13.27;;
179;SDS011;78;48.788;9.010;2023-06-04T02:26:18;30.33;;;12.17;;
179;SDS011;78;48.788;9.010;2023-06-04T02:28:44;31.13;;;12.40;;
179;SDS011;78;48.788;9.010;2023-06-04T02:31:11;28.50;;;11.97;;
179;SDS011;78;48.788;9.010;2023-06-04T02:33:37;30.30;;;12.47;;
179;SDS011;78;48.788;9.010;2023-06-04T02:36:04;32.70;;;13.23;;
179;SDS011;78;48.788;9.010;2023-06-04T02:38:30;30.23;;;12.20;;
179;SDS011;78;48.788;9.010;2023-06-04T02:40:56;33.40;;;13.67;;
179;SDS011;78;48.788;9.010;2023-06-04T02:43:23;31.00;;;13.03;;
179;SDS011;78;48.788;9.010;2023-06-04T02:45:49;32.50;;;13.20;;
179;SDS011;78;48.788;9.010;2023-06-04T02:48:15;33.13;;;14.23;;
179;SDS011;78;48.788;9.010;2023-06-04T02:50:42;33.73;;;13.03;;
179;SDS011;78;48.788;9.010;2023-06-04T02:53:08;30.80;;;13.20;;
179;SDS011;78;48.788;9.010;2023-06-04T02:55:34;31.90;;;13.87;;
179;SDS011;78;48.788;9.010;2023-06-04T02:58:01;29.60;;;12.70;;
179;SDS011;78;48.788;9.010;2023-06-04T03:00:27;34.03;;;12.40;;
179;SDS011;78;48.788;9.010;2023-06-04T03:02:54;30.33;;;12.57;;
179;SDS011;78;48.788;9.010;2023-06-04T03:05:26;32.63;;;12.87;;
179;SDS011;78;48.788;9.010;2023-06-04T03:07:52;34.57;;;13.13;;
179;SDS011;78;48.788;9.010;2023-06-04T03:10:21;31.47;;;13.43;;
179;SDS011;78;48.788;9.010;2023-06-04T03:12:47;33.73;;;13.57;;
179;SDS011;78;48.788;9.010;2023-06-04T03:15:13;31.63;;;13.23;;
179;SDS011;78;48.788;9.010;2023-06-04T03:17:40;33.10;;;13.40;;
179;SDS011;78;48.788;9.010;2023-06-04T03:20:07;31.50;;;13.37;;
179;SDS011;78;48.788;9.010;2023-06-04T03:22:34;31.33;;;13.10;;
179;SDS011;78;48.788;9.010;2023-06-04T03:25:01;32.37;;;14.43;;
179;SDS011;78;48.788;9.010;2023-06-04T03:27:29;31.60;;;13.40;;
179;SDS011;78;48.788;9.010;2023-06-04T03:29:56;31.03;;;12.30;;
179;SDS011;78;48.788;9.010;2023-06-04T03:32:22;27.83;;;11.97;;
179;SDS011;78;48.788;9.010;2023-06-04T03:34:49;31.20;;;13.40;;
179;SDS011;78;48.788;9.010;2023-06-04T03:37:16;35.00;;;13.17;;
179;SDS011;78;48.788;9.010;2023-06-04T03:39:42;32.03;;;12.10;;
179;SDS011;78;48.788;9.010;2023-06-04T03:42:08;32.50;;;12.30;;
179;SDS011;78;48.788;9.010;2023-06-04T03:44:35;30.43;;;12.80;;
179;SDS011;78;48.788;9.010;2023-06-04T03:47:01;31.30;;;12.70;;
179;SDS011;78;48.788;9.010;2023-06-04T03:49:27;29.90;;;12.57;;
179;SDS011;78;48.788;9.010;2023-06-04T03:51:53;28.40;;;11.90;;
179;SDS011;78;48.788;9.010;2023-06-04T03:54:20;31.23;;;12.63;;
179;SDS011;78;48.788;9.010;2023-06-04T03:56:47;31.67;;;13.00;;
179;SDS011;78;48.788;9.010;2023-06-04T03:59:13;29.80;;;12.13;;
179;SDS011;78;48.788;9.010;2023-06-04T04:01:41;30.03;;;13.00;;
179;SDS011;78;48.788;9.010;2023-06-04T04:04:08;29.03;;;12.57;;
179;SDS011;78;48.788;9.010;2023-06-04T04:06:34;29.67;;;12.10;;
179;SDS011;78;48.788;9.010;2023-06-04T04:09:02;35.63;;;12.77;;
179;SDS011;78;48.788;9.010;2023-06-04T04:11:29;28.53;;;12.43;;
179;SDS011;78;48.788;9.010;2023-06-04T04:13:56;34.33;;;12.40;;
179;SDS011;78;48.788;9.010;2023-06-04T04:16:22;29.63;;;11.50;;
179;SDS011;78;48.788;9.010;2023-06-04T04:18:49;28.33;;;12.30;;
179;SDS011;78;48.788;9.010;2023-06-04T04:21:15;29.17;;;12.00;;
179;SDS011;78;48.788;9.010;2023-06-04T04:23:42;29.53;;;11.73;;
179;SDS011;78;48.788;9.010;2023-06-04T04:26:08;30.80;;;12.20;;
179;SDS011;78;48.788;9.010;2023-06-04T04:28:41;29.60;;;12.83;;
179;SDS011;78;48.788;9.010;2023-06-04T04:31:08;31.10;;;12.50;;
179;SDS011;78;48.788;9.010;2023-06-04T04:33:36;29.03;;;12.27;;
179;SDS011;78;48.788;9.010;2023-06-04T04:36:04;26.90;;;11.30;;
179;SDS011;78;48.788;9.010;2023-06-04T04:38:33;27.30;;;10.77;;
179;SDS011;78;48.788;9.010;2023-06-04T04:41:00;30.03;;;11.80;;
179;SDS011;78;48.788;9.010;2023-06-04T04:43:32;45.00;;;11.43;;
179;SDS011;78;48.788;9.010;2023-06-04T04:45:59;28.40;;;11.47;;
179;SDS011;78;48.788;9.010;2023-06-04T04:48:25;27.10;;;10.80;;
179;SDS011;78;48.788;9.010;2023-06-04T04:50:52;29.83;;;11.50;;
179;SDS011;78;48.788;9.010;2023-06-04T04:53:19;32.10;;;12.83;;
179;SDS011;78;48.788;9.010;2023-06-04T04:55:45;29.37;;;12.00;;
179;SDS011;78;48.788;9.010;2023-06-04T04:58:12;31.60;;;12.13;;
179;SDS011;78;48.788;9.010;2023-06-04T05:00:39;31.97;;;12.60;;
179;SDS011;78;48.788;9.010;2023-06-04T05:03:05;31.57;;;12.73;;
179;SDS011;78;48.788;9.010;2023-06-04T05:05:32;31.90;;;13.30;;
179;SDS011;78;48.788;9.010;2023-06-04T05:07:58;32.77;;;13.47;;
179;SDS011;78;48.788;9.010;2023-06-04T05:10:25;32.67;;;13.07;;
179;SDS011;78;48.788;9.010;2023-06-04T05:12:55;28.03;;;11.77;;
179;SDS011;78;48.788;9.010;2023-06-04T05:15:22;27.93;;;11.40;;
179;SDS011;78;48.788;9.010;2023-06-04T05:17:50;29.80;;;12.10;;
179;SDS011;78;48.788;9.010;2023-06-04T05:20:17;33.33;;;10.97;;
179;SDS011;78;48.788;9.010;2023-06-04T05:22:44;29.03;;;10.07;;
179;SDS011;78;48.788;9.010;2023-06-04T05:25:11;27.37;;;10.30;;
179;SDS011;78;48.788;9.010;2023-06-04T05:27:37;29.90;;;9.70;;
179;SDS011;78;48.788;9.010;2023-06-04T05:30:03;26.23;;;9.50;;
179;SDS011;78;48.788;9.010;2023-06-04T05:32:30;29.90;;;10.10;;
179;SDS011;78;48.788;9.010;2023-06-04T05:34:57;24.57;;;9.33;;
179;SDS011;78;48.788;9.010;2023-06-04T05:37:24;33.70;;;9.80;;
179;SDS011;78;48.788;9.010;2023-06-04T05:39:55;24.67;;;9.03;;
179;SDS011;78;48.788;9.010;2023-06-04T05:42:22;31.50;;;9.53;;
179;SDS011;78;48.788;9.010;2023-06-04T05:44:52;24.53;;;9.17;;
179;SDS011;78;48.788;9.010;2023-06-04T05:47:18;24.57;;;8.43;;
179;SDS011;78;48.788;9.010;2023-06-04T05:49:45;26.90;;;8.40;;
179;SDS011;78;48.788;9.010;2023-06-04T05:52:11;27.97;;;7.77;;
179;SDS011;78;48.788;9.010;2023-06-04T05:54:37;24.13;;;7.33;;
179;SDS011;78;48.788;9.010;2023-06-04T05:57:04;23.77;;;6.50;;
179;SDS011;78;48.788;9.010;2023-06-04T05:59:30;24.33;;;6.63;;
179;SDS011;78;48.788;9.010;2023-06-04T06:01:57;22.13;;;6.77;;
179;SDS011;78;48.788;9.010;2023-06-04T06:04:23;25.80;;;6.00;;
179;SDS011;78;48.788;9.010;2023-06-04T06:06:50;25.90;;;7.63;;
179;SDS011;78;48.788;9.010;2023-06-04T06:09:17;20.83;;;5.67;;
179;SDS011;78;48.788;9.010;2023-06-04T06:11:43;19.67;;;5.70;;
179;SDS011;78;48.788;9.010;2023-06-04T06:14:09;20.63;;;5.70;;
179;SDS011;78;48.788;9.010;2023-06-04T06:16:36;19.20;;;5.37;;
179;SDS011;78;48.788;9.010;2023-06-04T06:19:02;24.90;;;5.70;;
179;SDS011;78;48.788;9.010;2023-06-04T06:21:29;20.17;;;5.53;;
179;SDS011;78;48.788;9.010;2023-06-04T06:23:55;23.53;;;5.40;;
179;SDS011;78;48.788;9.010;2023-06-04T06:26:22;20.30;;;5.50;;
179;SDS011;78;48.788;9.010;2023-06-04T06:28:49;27.27;;;5.50;;
179;SDS011;78;48.788;9.010;2023-06-04T06:31:16;22.87;;;5.13;;
179;SDS011;78;48.788;9.010;2023-06-04T06:33:42;23.23;;;5.80;;
179;SDS011;78;48.788;9.010;2023-06-04T06:36:09;27.67;;;5.77;;
179;SDS011;78;48.788;9.010;2023-06-04T06:38:38;18.90;;;5.07;;
179;SDS011;78;48.788;9.010;2023-06-04T06:41:04;20.00;;;5.30;;
179;SDS011;78;48.788;9.010;2023-06-04T06:43:31;19.70;;;5.30;;
179;SDS011;78;48.788;9.010;2023-06-04T06:45:58;19.47;;;5.90;;
179;SDS011;78;48.788;9.010;2023-06-04T06:48:25;20.00;;;5.50;;
179;SDS011;78;48.788;9.010;2023-06-04T06:50:51;20.87;;;5.20;;
179;SDS011;78;48.788;9.010;2023-06-04T06:53:17;20.60;;;5.40;;
179;SDS011;78;48.788;9.010;2023-06-04T06:55:43;19.37;;;5.50;;
179;SDS011;78;48.788;9.010;2023-06-04T06:58:09;24.40;;;6.03;;
179;SDS011;78;48.788;9.010;2023-06-04T07:00:36;18.13;;;5.20;;
179;SDS011;78;48.788;9.010;2023-06-04T07:03:02;18.50;;;5.00;;
179;SDS011;78;48.788;9.010;2023-06-04T07:05:29;21.20;;;5.50;;
179;SDS011;78;48.788;9.010;2023-06-04T07:07:56;18.40;;;5.20;;
179;SDS011;78;48.788;9.010;2023-06-04T07:10:26;21.47;;;5.93;;
179;SDS011;78;48.788;9.010;2023-06-04T07:12:52;21.70;;;5.47;;
179;SDS011;78;48.788;9.010;2023-06-04T07:15:18;25.90;;;5.50;;
179;SDS011;78;48.788;9.010;2023-06-04T07:17:44;20.57;;;5.43;;
179;SDS011;78;48.788;9.010;2023-06-04T07:20:10;21.20;;;5.30;;
179;SDS011;78;48.788;9.010;2023-06-04T07:22:37;28.50;;;6.27;;
179;SDS011;78;48.788;9.010;2023-06-04T07:25:03;20.13;;;5.80;;
179;SDS011;78;48.788;9.010;2023-06-04T07:27:30;19.83;;;5.40;;
179;SDS011;78;48.788;9.010;2023-06-04T07:29:56;20.53;;;5.27;;
179;SDS011;78;48.788;9.010;2023-06-04T07:32:22;19.83;;;5.50;;
179;SDS011;78;48.788;9.010;2023-06-04T07:34:48;19.67;;;5.13;;
179;SDS011;78;48.788;9.010;2023-06-04T07:37:14;21.67;;;5.13;;
179;SDS011;78;48.788;9.010;2023-06-04T07:39:40;19.03;;;4.87;;
179;SDS011;78;48.788;9.010;2023-06-04T07:42:08;19.63;;;5.10;;
179;SDS011;78;48.788;9.010;2023-06-04T07:44:34;19.80;;;4.60;;
179;SDS011;78;48.788;9.010;2023-06-04T07:47:00;19.33;;;4.97;;
179;SDS011;78;48.788;9.010;2023-06-04T07:49:26;19.27;;;5.10;;
179;SDS011;78;48.788;9.010;2023-06-04T07:51:52;19.73;;;5.43;;
179;SDS011;78;48.788;9.010;2023-06-04T07:54:18;24.03;;;5.17;;
179;SDS011;78;48.788;9.010;2023-06-04T07:56:44;18.90;;;4.63;;
179;SDS011;78;48.788;9.010;2023-06-04T07:59:10;18.50;;;4.80;;
179;SDS011;78;48.788;9.010;2023-06-04T08:01:37;19.47;;;5.10;;
179;SDS011;78;48.788;9.010;2023-06-04T08:04:03;20.53;;;4.67;;
179;SDS011;78;48.788;9.010;2023-06-04T08:06:29;20.10;;;5.47;;
179;SDS011;78;48.788;9.010;2023-06-04T08:08:55;19.23;;;4.73;;
179;SDS011;78;48.788;9.010;2023-06-04T08:11:21;17.80;;;4.20;;
179;SDS011;78;48.788;9.010;2023-06-04T08:13:48;20.57;;;5.17;;
179;SDS011;78;48.788;9.010;2023-06-04T08:16:14;19.53;;;4.67;;
179;SDS011;78;48.788;9.010;2023-06-04T08:18:41;17.83;;;4.60;;
179;SDS011;78;48.788;9.010;2023-06-04T08:21:10;20.97;;;5.03;;
179;SDS011;78;48.788;9.010;2023-06-04T08:23:37;20.10;;;5.30;;
179;SDS011;78;48.788;9.010;2023-06-04T08:26:03;19.67;;;5.27;;
179;SDS011;78;48.788;9.010;2023-06-04T08:28:29;17.70;;;4.60;;
179;SDS011;78;48.788;9.010;2023-06-04T08:30:55;20.60;;;4.80;;
179;SDS011;78;48.788;9.010;2023-06-04T08:33:21;18.83;;;4.90;;
179;SDS011;78;48.788;9.010;2023-06-04T08:35:47;24.23;;;4.73;;
179;SDS011;78;48.788;9.010;2023-06-04T08:38:13;21.80;;;5.80;;
179;SDS011;78;48.788;9.010;2023-06-04T08:40:39;20.70;;;5.23;;
179;SDS011;78;48.788;9.010;2023-06-04T08:43:05;20.70;;;4.97;;
179;SDS011;78;48.788;9.010;2023-06-04T08:45:32;25.57;;;5.20;;
179;SDS011;78;48.788;9.010;2023-06-04T08:47:58;21.23;;;4.70;;
179;SDS011;78;48.788;9.010;2023-06-04T08:50:25;18.57;;;5.13;;
179;SDS011;78;48.788;9.010;2023-06-04T08:52:55;18.97;;;5.50;;
179;SDS011;78;48.788;9.010;2023-06-04T08:55:21;20.40;;;4.73;;
179;SDS011;78;48.788;9.010;2023-06-04T08:57:49;20.90;;;5.50;;
179;SDS011;78;48.788;9.010;2023-06-04T09:00:16;19.30;;;4.90;;
179;SDS011;78;48.788;9.010;2023-06-04T09:02:43;22.77;;;5.10;;
179;SDS011;78;48.788;9.010;2023-06-04T09:05:10;17.97;;;5.07;;
179;SDS011;78;48.788;9.010;2023-06-04T09:07:39;19.60;;;4.80;;
179;SDS011;78;48.788;9.010;2023-06-04T09:10:06;18.40;;;4.83;;
179;SDS011;78;48.788;9.010;2023-06-04T09:12:33;18.73;;;4.80;;
179;SDS011;78;48.788;9.010;2023-06-04T09:15:02;20.10;;;4.90;;
179;SDS011;78;48.788;9.010;2023-06-04T09:17:28;23.60;;;5.00;;
179;SDS011;78;48.788;9.010;2023-06-04T09:19:54;18.40;;;4.83;;
179;SDS011;78;48.788;9.010;2023-06-04T09:22:31;20.93;;;4.93;;
179;SDS011;78;48.788;9.010;2023-06-04T09:24:57;25.30;;;4.50;;
179;SDS011;78;48.788;9.010;2023-06-04T09:27:23;19.40;;;4.60;;
179;SDS011;78;48.788;9.010;2023-06-04T09:32:23;19.70;;;5.03;;
179;SDS011;78;48.788;9.010;2023-06-04T09:34:49;17.63;;;4.50;;
179;SDS011;78;48.788;9.010;2023-06-04T09:37:15;19.30;;;4.70;;
179;SDS011;78;48.788;9.010;2023-06-04T09:39:53;18.47;;;4.80;;
179;SDS011;78;48.788;9.010;2023-06-04T09:42:19;18.00;;;4.70;;
179;SDS011;78;48.788;9.010;2023-06-04T09:44:45;20.83;;;5.07;;
179;SDS011;78;48.788;9.010;2023-06-04T09:47:13;20.90;;;4.30;;
179;SDS011;78;48.788;9.010;2023-06-04T09:49:46;18.43;;;4.60;;
179;SDS011;78;48.788;9.010;2023-06-04T09:52:12;17.70;;;4.57;;
179;SDS011;78;48.788;9.010;2023-06-04T09:54:40;18.37;;;4.60;;
179;SDS011;78;48.788;9.010;2023-06-04T09:57:19;17.50;;;4.50;;
179;SDS011;78;48.788;9.010;2023-06-04T09:59:49;18.00;;;4.67;;
179;SDS011;78;48.788;9.010;2023-06-04T10:02:18;17.97;;;4.93;;
179;SDS011;78;48.788;9.010;2023-06-04T10:04:45;20.80;;;4.40;;
179;SDS011;78;48.788;9.010;2023-06-04T10:07:14;17.80;;;4.30;;
179;SDS011;78;48.788;9.010;2023-06-04T10:09:43;19.80;;;4.80;;
179;SDS011;78;48.788;9.010;2023-06-04T10:12:15;17.50;;;4.50;;
179;SDS011;78;48.788;9.010;2023-06-04T10:14:43;18.00;;;4.40;;
179;SDS011;78;48.788;9.010;2023-06-04T10:17:10;21.37;;;5.00;;
179;SDS011;78;48.788;9.010;2023-06-04T10:19:37;23.83;;;5.07;;
179;SDS011;78;48.788;9.010;2023-06-04T10:22:04;17.50;;;4.40;;
179;SDS011;78;48.788;9.010;2023-06-04T10:24:31;23.40;;;4.77;;
179;SDS011;78;48.788;9.010;2023-06-04T10:26:58;21.53;;;5.00;;
179;SDS011;78;48.788;9.010;2023-06-04T10:29:25;16.90;;;4.70;;
179;SDS011;78;48.788;9.010;2023-06-04T10:31:54;18.87;;;4.47;;
179;SDS011;78;48.788;9.010;2023-06-04T10:34:20;20.50;;;5.00;;
179;SDS011;78;48.788;9.010;2023-06-04T10:36:48;19.50;;;5.17;;
179;SDS011;78;48.788;9.010;2023-06-04T10:39:24;18.37;;;5.13;;
179;SDS011;78;48.788;9.010;2023-06-04T10:41:58;18.00;;;4.60;;
179;SDS011;78;48.788;9.010;2023-06-04T10:44:25;17.53;;;4.37;;
179;SDS011;78;48.788;9.010;2023-06-04T10:46:51;19.20;;;4.77;;
179;SDS011;78;48.788;9.010;2023-06-04T10:49:26;18.23;;;4.60;;
179;SDS011;78;48.788;9.010;2023-06-04T10:51:52;19.60;;;4.80;;
179;SDS011;78;48.788;9.010;2023-06-04T10:54:24;24.33;;;5.30;;
179;SDS011;78;48.788;9.010;2023-06-04T10:56:50;20.93;;;5.57;;
179;SDS011;78;48.788;9.010;2023-06-04T10:59:17;17.50;;;5.30;;
179;SDS011;78;48.788;9.010;2023-06-04T11:01:44;20.00;;;4.97;;
179;SDS011;78;48.788;9.010;2023-06-04T11:04:23;20.03;;;4.60;;
179;SDS011;78;48.788;9.010;2023-06-04T11:07:02;17.10;;;4.20;;
179;SDS011;78;48.788;9.010;2023-06-04T11:09:29;17.63;;;4.60;;
179;SDS011;78;48.788;9.010;2023-06-04T11:11:56;22.17;;;4.60;;
179;SDS011;78;48.788;9.010;2023-06-04T11:14:22;19.07;;;4.70;;
179;SDS011;78;48.788;9.010;2023-06-04T11:16:48;18.17;;;4.50;;
179;SDS011;78;48.788;9.010;2023-06-04T11:19:14;20.97;;;4.80;;
179;SDS011;78;48.788;9.010;2023-06-04T11:21:40;16.17;;;4.07;;
179;SDS011;78;48.788;9.010;2023-06-04T11:24:06;16.20;;;4.20;;
179;SDS011;78;48.788;9.010;2023-06-04T11:26:36;17.93;;;4.50;;
179;SDS011;78;48.788;9.010;2023-06-04T11:29:05;17.37;;;4.20;;
179;SDS011;78;48.788;9.010;2023-06-04T11:31:45;20.43;;;4.43;;
179;SDS011;78;48.788;9.010;2023-06-04T11:34:21;16.93;;;4.33;;
179;SDS011;78;48.788;9.010;2023-06-04T11:36:47;17.80;;;4.23;;
179;SDS011;78;48.788;9.010;2023-06-04T11:39:14;18.27;;;4.43;;
179;SDS011;78;48.788;9.010;2023-06-04T11:41:41;17.70;;;4.53;;
179;SDS011;78;48.788;9.010;2023-06-04T11:44:07;18.10;;;3.90;;
179;SDS011;78;48.788;9.010;2023-06-04T11:46:34;17.90;;;4.20;;
179;SDS011;78;48.788;9.010;2023-06-04T11:49:00;16.70;;;4.37;;
179;SDS011;78;48.788;9.010;2023-06-04T11:51:27;17.30;;;3.90;;
179;SDS011;78;48.788;9.010;2023-06-04T11:53:54;18.10;;;4.03;;
179;SDS011;78;48.788;9.010;2023-06-04T11:56:22;17.67;;;4.40;;
179;SDS011;78;48.788;9.010;2023-06-04T11:58:50;16.03;;;4.10;;
179;SDS011;78;48.788;9.010;2023-06-04T12:01:17;19.37;;;3.80;;
179;SDS011;78;48.788;9.010;2023-06-04T12:03:43;17.60;;;3.83;;
179;SDS011;78;48.788;9.010;2023-06-04T12:06:15;16.00;;;3.80;;
179;SDS011;78;48.788;9.010;2023-06-04T12:08:45;15.17;;;3.60;;
179;SDS011;78;48.788;9.010;2023-06-04T12:14:05;16.97;;;3.90;;
179;SDS011;78;48.788;9.010;2023-06-04T12:16:32;20.97;;;4.40;;
179;SDS011;78;48.788;9.010;2023-06-04T12:19:05;15.60;;;3.93;;
179;SDS011;78;48.788;9.010;2023-06-04T12:21:32;18.50;;;3.90;;
179;SDS011;78;48.788;9.010;2023-06-04T12:24:08;16.73;;;4.00;;
179;SDS011;78;48.788;9.010;2023-06-04T12:26:35;14.63;;;3.70;;
179;SDS011;78;48.788;9.010;2023-06-04T12:29:09;16.50;;;4.10;;
179;SDS011;78;48.788;9.010;2023-06-04T12:31:36;15.83;;;4.00;;
179;SDS011;78;48.788;9.010;2023-06-04T12:34:02;16.60;;;3.90;;
179;SDS011;78;48.788;9.010;2023-06-04T12:36:28;29.63;;;4.40;;
179;SDS011;78;48.788;9.010;2023-06-04T12:39:00;19.63;;;4.60;;
179;SDS011;78;48.788;9.010;2023-06-04T12:41:27;20.93;;;4.03;;
179;SDS011;78;48.788;9.010;2023-06-04T12:43:53;18.23;;;3.97;;
179;SDS011;78;48.788;9.010;2023-06-04T12:46:19;16.47;;;4.13;;
179;SDS011;78;48.788;9.010;2023-06-04T12:48:46;16.10;;;3.90;;
179;SDS011;78;48.788;9.010;2023-06-04T12:51:12;17.20;;;3.60;;
179;SDS011;78;48.788;9.010;2023-06-04T12:53:38;18.40;;;3.90;;
179;SDS011;78;48.788;9.010;2023-06-04T12:56:05;16.07;;;3.43;;
179;SDS011;78;48.788;9.010;2023-06-04T12:58:31;18.20;;;4.00;;
179;SDS011;78;48.788;9.010;2023-06-04T13:00:57;14.73;;;3.50;;
179;SDS011;78;48.788;9.010;2023-06-04T13:03:23;15.87;;;3.90;;
179;SDS011;78;48.788;9.010;2023-06-04T13:05:49;16.93;;;4.00;;
179;SDS011;78;48.788;9.010;2023-06-04T13:08:16;16.10;;;4.13;;
179;SDS011;78;48.788;9.010;2023-06-04T13:10:42;16.13;;;4.00;;
179;SDS011;78;48.788;9.010;2023-06-04T13:13:08;20.50;;;4.20;;
179;SDS011;78;48.788;9.010;2023-06-04T13:15:34;18.47;;;4.70;;
179;SDS011;78;48.788;9.010;2023-06-04T13:18:00;17.17;;;4.00;;
179;SDS011;78;48.788;9.010;2023-06-04T13:20:28;23.00;;;3.90;;
179;SDS011;78;48.788;9.010;2023-06-04T13:22:54;15.30;;;3.60;;
179;SDS011;78;48.788;9.010;2023-06-04T13:25:20;19.10;;;3.80;;
179;SDS011;78;48.788;9.010;2023-06-04T13:27:46;16.00;;;3.80;;
179;SDS011;78;48.788;9.010;2023-06-04T13:30:13;15.73;;;3.70;;
179;SDS011;78;48.788;9.010;2023-06-04T13:32:39;18.67;;;3.90;;
179;SDS011;78;48.788;9.010;2023-06-04T13:35:05;18.73;;;3.77;;
179;SDS011;78;48.788;9.010;2023-06-04T13:37:31;18.13;;;3.57;;
179;SDS011;78;48.788;9.010;2023-06-04T13:39:57;16.20;;;3.90;;
179;SDS011;78;48.788;9.010;2023-06-04T13:42:23;15.50;;;3.67;;
179;SDS011;78;48.788;9.010;2023-06-04T13:44:49;15.97;;;3.80;;
179;SDS011;78;48.788;9.010;2023-06-04T13:47:15;16.50;;;4.10;;
179;SDS011;78;48.788;9.010;2023-06-04T13:49:43;14.63;;;3.43;;
179;SDS011;78;48.788;9.010;2023-06-04T13:52:09;16.90;;;3.87;;
179;SDS011;78;48.788;9.010;2023-06-04T13:54:35;19.10;;;4.33;;
179;SDS011;78;48.788;9.010;2023-06-04T13:57:02;16.50;;;4.10;;
179;SDS011;78;48.788;9.010;2023-06-04T13:59:29;16.23;;;4.03;;
179;SDS011;78;48.788;9.010;2023-06-04T14:01:56;18.37;;;4.80;;
179;SDS011;78;48.788;9.010;2023-06-04T14:04:22;19.50;;;4.50;;
179;SDS011;78;48.788;9.010;2023-06-04T14:06:48;19.80;;;4.57;;
179;SDS011;78;48.788;9.010;2023-06-04T14:09:15;17.47;;;4.13;;
179;SDS011;78;48.788;9.010;2023-06-04T14:11:41;21.83;;;4.70;;
179;SDS011;78;48.788;9.010;2023-06-04T14:14:08;18.60;;;4.70;;
179;SDS011;78;48.788;9.010;2023-06-04T14:16:35;16.60;;;4.50;;
179;SDS011;78;48.788;9.010;2023-06-04T14:19:01;19.90;;;4.77;;
179;SDS011;78;48.788;9.010;2023-06-04T14:21:27;17.00;;;4.07;;
179;SDS011;78;48.788;9.010;2023-06-04T14:23:53;16.30;;;4.10;;
179;SDS011;78;48.788;9.010;2023-06-04T14:26:20;15.90;;;4.00;;
179;SDS011;78;48.788;9.010;2023-06-04T14:28:47;18.30;;;4.10;;
179;SDS011;78;48.788;9.010;2023-06-04T14:31:13;20.00;;;4.20;;
179;SDS011;78;48.788;9.010;2023-06-04T14:33:40;17.70;;;3.73;;
179;SDS011;78;48.788;9.010;2023-06-04T14:36:06;16.97;;;4.50;;
179;SDS011;78;48.788;9.010;2023-06-04T14:38:32;16.77;;;4.07;;
179;SDS011;78;48.788;9.010;2023-06-04T14:40:59;15.00;;;3.60;;
179;SDS011;78;48.788;9.010;2023-06-04T14:43:25;14.77;;;3.77;;
179;SDS011;78;48.788;9.010;2023-06-04T14:45:51;15.83;;;3.70;;
179;SDS011;78;48.788;9.010;2023-06-04T14:48:17;13.90;;;3.23;;
179;SDS011;78;48.788;9.010;2023-06-04T14:50:44;14.93;;;3.70;;
179;SDS011;78;48.788;9.010;2023-06-04T14:53:12;16.07;;;3.60;;
179;SDS011;78;48.788;9.010;2023-06-04T14:55:38;17.10;;;3.50;;
179;SDS011;78;48.788;9.010;2023-06-04T14:58:05;16.63;;;3.73;;
179;SDS011;78;48.788;9.010;2023-06-04T15:00:31;15.83;;;3.80;;
179;SDS011;78;48.788;9.010;2023-06-04T15:02:57;15.83;;;3.77;;
179;SDS011;78;48.788;9.010;2023-06-04T15:05:25;14.93;;;3.70;;
179;SDS011;78;48.788;9.010;2023-06-04T15:07:51;17.10;;;3.90;;
179;SDS011;78;48.788;9.010;2023-06-04T15:10:17;15.23;;;3.60;;
179;SDS011;78;48.788;9.010;2023-06-04T15:12:43;16.55;;;2.90;;
179;SDS011;78;48.788;9.010;2023-06-04T15:15:09;13.80;;;3.03;;
179;SDS011;78;48.788;9.010;2023-06-04T15:17:35;15.93;;;3.60;;
179;SDS011;78;48.788;9.010;2023-06-04T15:20:05;14.70;;;3.50;;
179;SDS011;78;48.788;9.010;2023-06-04T15:22:32;17.50;;;3.15;;
179;SDS011;78;48.788;9.010;2023-06-04T15:24:58;14.88;;;3.00;;
179;SDS011;78;48.788;9.010;2023-06-04T15:27:24;14.02;;;3.20;;
179;SDS011;78;48.788;9.010;2023-06-04T15:29:50;18.83;;;3.63;;
179;SDS011;78;48.788;9.010;2023-06-04T15:32:17;19.73;;;3.85;;
179;SDS011;78;48.788;9.010;2023-06-04T15:34:43;14.75;;;3.25;;
179;SDS011;78;48.788;9.010;2023-06-04T15:37:09;16.48;;;3.47;;
179;SDS011;78;48.788;9.010;2023-06-04T15:39:35;13.38;;;2.80;;
179;SDS011;78;48.788;9.010;2023-06-04T15:42:01;13.48;;;2.85;;
179;SDS011;78;48.788;9.010;2023-06-04T15:44:27;15.60;;;2.95;;
179;SDS011;78;48.788;9.010;2023-06-04T15:46:53;14.45;;;3.10;;
179;SDS011;78;48.788;9.010;2023-06-04T15:49:21;15.75;;;3.30;;
179;SDS011;78;48.788;9.010;2023-06-04T15:51:47;13.75;;;2.90;;